createdAt,value
2023-01-17T00:02:20.166Z,9.88
2023-01-17T00:06:31.421Z,9.75
2023-01-17T00:10:26.948Z,9.48
2023-01-17T00:14:19.515Z,10.35
2023-01-17T00:18:12.219Z,12.15
2023-01-17T00:22:30.805Z,9.70
2023-01-17T00:26:23.927Z,8.88
2023-01-17T00:30:16.643Z,8.02
2023-01-17T00:34:09.166Z,8.05
2023-01-17T00:38:15.233Z,7.43
2023-01-17T00:42:07.976Z,8.70
2023-01-17T00:46:19.086Z,8.10
2023-01-17T00:50:30.538Z,8.10
2023-01-17T00:54:41.885Z,7.15
2023-01-17T00:58:53.364Z,9.77
2023-01-17T01:03:04.790Z,9.48
2023-01-17T01:07:16.023Z,10.93
2023-01-17T01:11:45.770Z,9.48
2023-01-17T01:15:57.142Z,12.45
2023-01-17T01:20:08.339Z,16.00
2023-01-17T01:24:20.033Z,17.67
2023-01-17T01:28:33.218Z,21.15
2023-01-17T01:32:44.237Z,22.90
2023-01-17T01:36:37.132Z,23.67
2023-01-17T01:40:29.867Z,20.90
2023-01-17T01:44:48.658Z,19.63
2023-01-17T01:48:47.974Z,22.50
2023-01-17T01:52:45.057Z,23.23
2023-01-17T01:56:38.942Z,24.48
2023-01-17T02:00:38.394Z,24.58
2023-01-17T02:04:31.202Z,24.38
2023-01-17T02:08:24.672Z,23.98
2023-01-17T02:12:22.073Z,20.92
2023-01-17T02:17:02.970Z,22.75
2023-01-17T02:21:08.276Z,21.10
2023-01-17T02:25:07.032Z,21.02
2023-01-17T02:29:37.210Z,18.70
2023-01-17T02:33:53.050Z,17.05
2023-01-17T02:38:17.060Z,20.40
2023-01-17T02:42:20.852Z,23.08
2023-01-17T02:46:13.649Z,20.33
2023-01-17T02:50:11.258Z,22.10
2023-01-17T02:54:28.749Z,23.40
2023-01-17T02:58:27.247Z,25.63
2023-01-17T03:02:48.392Z,23.33
2023-01-17T03:06:46.045Z,27.17
2023-01-17T03:10:39.977Z,25.90
2023-01-17T03:14:32.695Z,26.05
2023-01-17T03:18:25.297Z,26.70
2023-01-17T03:22:18.490Z,23.98
2023-01-17T03:26:11.203Z,27.23
2023-01-17T03:30:04.990Z,24.08
2023-01-17T03:33:57.726Z,19.98
2023-01-17T03:37:50.491Z,21.77
2023-01-17T03:41:43.204Z,18.00
2023-01-17T03:45:35.929Z,17.77
2023-01-17T03:49:29.419Z,20.73
2023-01-17T03:53:22.233Z,16.85
2023-01-17T03:57:15.899Z,17.10
2023-01-17T04:01:09.127Z,17.88
2023-01-17T04:05:02.158Z,17.02
2023-01-17T04:08:54.789Z,18.10
2023-01-17T04:12:47.751Z,10.50
2023-01-17T04:16:40.527Z,9.80
2023-01-17T04:20:35.960Z,10.15
2023-01-17T04:24:28.634Z,10.90
2023-01-17T04:28:21.259Z,8.25
2023-01-17T04:32:15.007Z,11.82
2023-01-17T04:36:07.895Z,9.90
2023-01-17T04:40:00.594Z,8.55
2023-01-17T04:43:53.267Z,9.00
2023-01-17T04:47:46.004Z,9.27
2023-01-17T04:51:38.604Z,9.73
2023-01-17T04:55:32.039Z,8.10
2023-01-17T04:59:24.725Z,8.80
2023-01-17T05:03:21.325Z,10.88
2023-01-17T05:07:13.946Z,10.40
2023-01-17T05:11:06.892Z,9.05
2023-01-17T05:14:59.500Z,10.20
2023-01-17T05:18:53.710Z,8.23
2023-01-17T05:22:55.674Z,11.38
2023-01-17T05:26:54.948Z,9.13
2023-01-17T05:30:47.541Z,9.50
2023-01-17T05:34:40.529Z,10.52
2023-01-17T05:38:33.098Z,11.55
2023-01-17T05:42:25.982Z,11.48
2023-01-17T05:46:18.744Z,10.35
2023-01-17T05:50:16.961Z,10.35
2023-01-17T05:54:09.762Z,11.55
2023-01-17T05:58:03.373Z,11.57
2023-01-17T06:01:56.315Z,11.45
2023-01-17T06:05:50.372Z,12.25
2023-01-17T06:09:42.930Z,10.68
2023-01-17T06:13:35.657Z,8.82
2023-01-17T06:17:28.399Z,12.60
2023-01-17T06:21:21.299Z,9.55
2023-01-17T06:25:14.102Z,8.40
2023-01-17T06:29:06.664Z,7.03
2023-01-17T06:32:59.416Z,6.78
2023-01-17T06:36:52.013Z,5.05
2023-01-17T06:40:44.728Z,5.03
2023-01-17T06:44:37.544Z,4.55
2023-01-17T06:48:30.205Z,3.67
2023-01-17T06:52:22.830Z,5.10
2023-01-17T06:56:15.463Z,4.80
2023-01-17T07:00:09.085Z,3.80
2023-01-17T07:04:02.204Z,4.38
2023-01-17T07:07:55.280Z,6.45
2023-01-17T07:11:49.456Z,5.78
2023-01-17T07:15:42.491Z,6.70
2023-01-17T07:19:35.137Z,9.85
2023-01-17T07:23:27.875Z,6.88
2023-01-17T07:27:20.385Z,6.40
2023-01-17T07:31:13.247Z,5.65
2023-01-17T07:35:06.935Z,7.85
2023-01-17T07:38:59.622Z,6.80
2023-01-17T07:42:52.448Z,5.68
2023-01-17T07:46:45.139Z,6.75
2023-01-17T07:50:38.707Z,3.38
2023-01-17T07:54:31.512Z,3.33
2023-01-17T07:58:24.327Z,1.92
2023-01-17T08:02:22.328Z,2.55
2023-01-17T08:06:22.383Z,2.45
2023-01-17T08:10:18.231Z,2.30
2023-01-17T08:14:11.004Z,3.42
2023-01-17T08:18:03.821Z,4.18
2023-01-17T08:21:56.735Z,3.88
2023-01-17T08:25:49.350Z,4.13
2023-01-17T08:29:48.442Z,4.03
2023-01-17T08:33:41.105Z,5.70
2023-01-17T08:37:33.975Z,8.90
2023-01-17T08:41:28.152Z,7.03
2023-01-17T08:45:20.772Z,3.35
2023-01-17T08:49:13.862Z,2.63
2023-01-17T08:53:07.086Z,4.25
2023-01-17T08:57:00.156Z,2.55
2023-01-17T09:00:52.811Z,2.90
2023-01-17T09:04:47.123Z,2.72
2023-01-17T09:08:40.624Z,6.25
2023-01-17T09:12:33.711Z,5.05
2023-01-17T09:16:26.525Z,7.28
2023-01-17T09:20:19.311Z,4.43
2023-01-17T09:24:12.486Z,4.85
2023-01-17T09:28:05.740Z,4.53
2023-01-17T09:31:58.623Z,3.85
2023-01-17T09:35:51.535Z,5.35
2023-01-17T09:39:44.444Z,6.15
2023-01-17T09:43:49.323Z,4.00
2023-01-17T09:47:47.241Z,5.10
2023-01-17T09:51:40.379Z,2.88
2023-01-17T09:56:12.451Z,4.88
2023-01-17T10:00:14.501Z,3.90
2023-01-17T10:04:25.552Z,5.85
2023-01-17T10:08:33.534Z,2.80
2023-01-17T10:12:56.610Z,3.72
2023-01-17T10:17:01.329Z,5.55
2023-01-17T10:21:04.731Z,4.10
2023-01-17T10:25:27.797Z,3.42
2023-01-17T10:29:21.723Z,3.38
2023-01-17T10:33:25.679Z,5.43
2023-01-17T10:37:26.549Z,5.20
2023-01-17T10:41:24.885Z,5.47
2023-01-17T10:45:29.220Z,8.00
2023-01-17T10:49:24.821Z,8.52
2023-01-17T10:53:39.550Z,9.13
2023-01-17T10:57:40.586Z,4.20
2023-01-17T11:01:33.731Z,4.28
2023-01-17T11:05:29.731Z,5.65
2023-01-17T11:09:38.213Z,4.00
2023-01-17T11:13:34.514Z,4.28
2023-01-17T11:17:28.871Z,6.10
2023-01-17T11:21:24.350Z,5.40
2023-01-17T11:25:22.664Z,7.72
2023-01-17T11:29:27.653Z,5.38
2023-01-17T11:33:56.010Z,6.03
2023-01-17T11:37:58.959Z,6.55
2023-01-17T11:41:52.995Z,5.15
2023-01-17T11:45:47.247Z,5.03
2023-01-17T11:49:45.885Z,5.68
2023-01-17T11:53:40.874Z,4.75
2023-01-17T11:57:36.343Z,5.35
2023-01-17T12:01:46.590Z,6.03
2023-01-17T12:06:15.864Z,9.93
2023-01-17T12:10:31.807Z,5.70
2023-01-17T12:14:39.625Z,4.40
2023-01-17T12:19:04.579Z,3.88
2023-01-17T12:23:23.515Z,5.57
2023-01-17T12:27:31.634Z,4.57
2023-01-17T12:35:38.897Z,3.80
2023-01-17T12:39:38.670Z,5.05
2023-01-17T12:43:37.494Z,4.70
2023-01-17T12:47:34.022Z,5.55
2023-01-17T12:51:41.337Z,5.20
2023-01-17T12:55:50.051Z,6.32
2023-01-17T13:00:07.819Z,4.00
2023-01-17T13:04:23.150Z,4.53
2023-01-17T13:08:25.665Z,4.78
2023-01-17T13:12:20.292Z,4.43
2023-01-17T13:16:18.337Z,5.00
2023-01-17T13:20:27.267Z,5.05
2023-01-17T13:24:31.735Z,3.40
2023-01-17T13:28:44.971Z,4.63
2023-01-17T13:33:23.405Z,4.88
2023-01-17T13:37:40.303Z,6.88
2023-01-17T13:41:43.522Z,9.98
2023-01-17T13:45:38.330Z,6.80
2023-01-17T13:49:34.348Z,5.72
2023-01-17T13:53:35.737Z,4.95
2023-01-17T13:57:33.170Z,5.13
2023-01-17T14:01:25.899Z,4.45
2023-01-17T14:05:31.451Z,19.67
2023-01-17T14:09:28.048Z,7.65
2023-01-17T14:13:39.104Z,7.07
2023-01-17T14:17:43.988Z,5.93
2023-01-17T14:21:37.033Z,6.50
2023-01-17T14:25:38.272Z,4.32
2023-01-17T14:29:44.364Z,7.32
2023-01-17T14:33:40.059Z,6.93
2023-01-17T14:37:32.834Z,7.68
2023-01-17T14:41:28.952Z,6.75
2023-01-17T14:45:28.435Z,6.93
2023-01-17T14:49:25.642Z,7.18
2023-01-17T14:53:20.014Z,6.07
2023-01-17T14:57:28.974Z,8.55
2023-01-17T15:01:22.337Z,6.63
2023-01-17T15:05:19.147Z,7.80
2023-01-17T15:09:20.859Z,10.80
2023-01-17T15:13:18.132Z,5.40
2023-01-17T15:17:19.021Z,6.03
2023-01-17T15:21:20.106Z,4.63
2023-01-17T15:25:14.777Z,5.15
2023-01-17T15:29:16.074Z,6.07
2023-01-17T15:33:17.060Z,9.48
2023-01-17T15:37:31.469Z,10.45
2023-01-17T15:41:26.704Z,6.20
2023-01-17T15:45:37.563Z,6.97
2023-01-17T15:49:31.328Z,9.07
2023-01-17T15:53:32.834Z,9.27
2023-01-17T15:57:28.568Z,7.30
2023-01-17T16:01:26.723Z,10.13
2023-01-17T16:05:23.280Z,15.63
2023-01-17T16:09:23.545Z,20.00
2023-01-17T16:13:16.219Z,18.55
2023-01-17T16:17:16.118Z,17.13
2023-01-17T16:21:35.319Z,9.55
2023-01-17T16:25:32.712Z,7.35
2023-01-17T16:29:32.509Z,6.78
2023-01-17T16:33:25.165Z,8.82
2023-01-17T16:37:19.729Z,6.25
2023-01-17T16:41:14.875Z,8.55
2023-01-17T16:45:07.955Z,8.93
2023-01-17T16:49:01.414Z,10.43
2023-01-17T16:52:56.462Z,10.57
2023-01-17T16:56:49.496Z,9.90
2023-01-17T17:00:42.443Z,9.55
2023-01-17T17:04:35.133Z,8.80
2023-01-17T17:08:29.722Z,8.25
2023-01-17T17:12:22.625Z,8.38
2023-01-17T17:16:16.562Z,9.50
2023-01-17T17:20:13.192Z,9.32
2023-01-17T17:24:06.565Z,8.87
2023-01-17T17:27:59.214Z,11.13
2023-01-17T17:31:52.336Z,8.48
2023-01-17T17:35:45.436Z,8.45
2023-01-17T17:39:39.164Z,9.23
2023-01-17T17:43:39.241Z,9.10
2023-01-17T17:47:32.423Z,7.78
2023-01-17T17:51:31.592Z,9.07
2023-01-17T17:55:24.939Z,9.75
2023-01-17T17:59:20.024Z,8.25
2023-01-17T18:03:13.676Z,8.52
2023-01-17T18:07:07.201Z,7.50
2023-01-17T18:11:03.420Z,7.57
2023-01-17T18:14:56.696Z,6.15
2023-01-17T18:18:53.830Z,11.70
2023-01-17T18:22:47.192Z,11.27
2023-01-17T18:26:46.640Z,11.10
2023-01-17T18:30:40.108Z,17.27
2023-01-17T18:34:36.290Z,7.68
2023-01-17T18:38:38.084Z,12.70
2023-01-17T18:42:31.492Z,5.20
2023-01-17T18:46:28.079Z,6.45
2023-01-17T18:50:22.327Z,5.22
2023-01-17T18:54:16.762Z,5.45
2023-01-17T18:58:10.895Z,5.78
2023-01-17T19:02:05.068Z,6.57
2023-01-17T19:06:02.148Z,5.47
2023-01-17T19:09:55.806Z,5.63
2023-01-17T19:13:50.756Z,5.28
2023-01-17T19:17:44.460Z,5.43
2023-01-17T19:21:38.931Z,3.65
2023-01-17T19:25:35.458Z,3.70
2023-01-17T19:29:29.771Z,3.70
2023-01-17T19:33:33.735Z,3.58
2023-01-17T19:37:28.588Z,3.60
2023-01-17T19:41:27.238Z,3.13
2023-01-17T19:45:21.138Z,2.70
2023-01-17T19:49:20.816Z,4.93
2023-01-17T19:53:17.456Z,7.43
2023-01-17T19:57:11.400Z,8.88
2023-01-17T20:01:24.248Z,5.20
2023-01-17T20:05:17.805Z,4.15
2023-01-17T20:09:11.977Z,7.55
2023-01-17T20:13:07.122Z,5.55
2023-01-17T20:17:01.892Z,8.55
2023-01-17T20:20:57.382Z,9.10
2023-01-17T20:28:52.467Z,6.50
2023-01-17T20:32:46.850Z,5.70
2023-01-17T20:36:45.537Z,6.40
2023-01-17T20:40:39.687Z,3.22
2023-01-17T20:44:34.585Z,3.38
2023-01-17T20:48:28.387Z,4.63
2023-01-17T20:52:21.526Z,3.05
2023-01-17T20:56:15.548Z,2.97
2023-01-17T21:00:09.735Z,4.28
2023-01-17T21:04:03.261Z,2.25
2023-01-17T21:07:56.361Z,1.92
2023-01-17T21:11:50.785Z,1.58
2023-01-17T21:15:44.847Z,1.73
2023-01-17T21:19:37.974Z,2.58
2023-01-17T21:23:30.884Z,1.40
2023-01-17T21:27:23.643Z,1.98
2023-01-17T21:31:26.517Z,1.77
2023-01-17T21:35:19.225Z,1.20
2023-01-17T21:39:15.941Z,1.20
2023-01-17T21:43:09.015Z,1.43
2023-01-17T21:47:01.830Z,1.80
2023-01-17T21:50:54.589Z,1.30
2023-01-17T21:55:05.519Z,1.20
2023-01-17T21:58:59.075Z,1.00
2023-01-17T22:02:52.083Z,1.40
2023-01-17T22:06:44.857Z,1.67
2023-01-17T22:10:47.112Z,1.20
2023-01-17T22:14:39.940Z,1.30
2023-01-17T22:18:38.442Z,1.20
2023-01-17T22:22:32.723Z,1.00
2023-01-17T22:26:27.962Z,0.90
2023-01-17T22:30:20.754Z,1.15
2023-01-17T22:34:14.424Z,0.98
2023-01-17T22:38:07.297Z,1.83
2023-01-17T22:41:59.987Z,1.70
2023-01-17T22:45:59.672Z,1.38
2023-01-17T22:49:52.703Z,1.10
2023-01-17T22:53:48.108Z,1.20
2023-01-17T22:57:44.036Z,1.00
2023-01-17T23:01:38.046Z,1.25
2023-01-17T23:05:30.787Z,1.20
2023-01-17T23:09:23.468Z,1.60
2023-01-17T23:13:16.571Z,1.65
2023-01-17T23:17:27.856Z,1.52
2023-01-17T23:21:20.861Z,1.20
2023-01-17T23:25:14.400Z,1.50
2023-01-17T23:29:07.118Z,1.40
2023-01-17T23:33:01.177Z,1.30
2023-01-17T23:36:53.848Z,1.10
2023-01-17T23:41:06.772Z,1.40
2023-01-17T23:44:59.711Z,1.38
2023-01-17T23:48:52.406Z,1.50
2023-01-17T23:52:45.068Z,1.20
2023-01-17T23:56:37.744Z,1.58
